Time;durP1;ratioP1;P1;durP2;ratioP2;P2;SDS_P1;SDS_P2;PMS_P1;PMS_P2;Temp;Humidity;BMP_temperature;BMP_pressure;BME280_temperature;BME280_humidity;BME280_pressure;Samples;Min_cycle;Max_cycle;Signal;HPM_P1;HPM_P2
2021/10/30 00:00:55;;;;;;;9.55;5.70;;;;;;;;;;5019046;28;20064;-69
2021/10/30 00:03:24;;;;;;;8.23;5.20;;;;;;;;;;5025051;28;20037;-69
2021/10/30 00:05:53;;;;;;;9.68;5.78;;;;;;;;;;5017228;28;20058;-69
2021/10/30 00:08:24;;;;;;;9.70;5.65;;;;;;;;;;5019334;28;20045;-65
2021/10/30 00:10:52;;;;;;;10.38;5.72;;;;;;;;;;5027212;28;20061;-66
2021/10/30 00:13:20;;;;;;;9.90;5.97;;;;;;;;;;5023716;28;20081;-66
2021/10/30 00:15:49;;;;;;;12.68;6.95;;;;;;;;;;5019199;28;20548;-68
2021/10/30 00:18:17;;;;;;;10.23;6.07;;;;;;;;;;5031060;28;20278;-70
2021/10/30 00:20:45;;;;;;;11.80;6.45;;;;;;;;;;5018814;28;20137;-68
2021/10/30 00:23:14;;;;;;;11.25;6.60;;;;;;;;;;5016546;28;20100;-66
2021/10/30 00:25:43;;;;;;;9.95;6.20;;;;;;;;;;5012490;28;20146;-68
2021/10/30 00:28:12;;;;;;;11.23;5.82;;;;;;;;;;5030533;28;20509;-67
2021/10/30 00:30:40;;;;;;;11.20;6.85;;;;;;;;;;5031521;28;20136;-66
2021/10/30 00:33:08;;;;;;;9.77;6.13;;;;;;;;;;5028543;28;20504;-66
2021/10/30 00:35:36;;;;;;;14.88;5.85;;;;;;;;;;5031737;28;20136;-66
2021/10/30 00:38:05;;;;;;;10.73;5.93;;;;;;;;;;5022495;28;20541;-66
2021/10/30 00:40:34;;;;;;;10.85;6.45;;;;;;;;;;5030129;28;20574;-66
2021/10/30 00:43:03;;;;;;;11.27;6.35;;;;;;;;;;5013413;28;20053;-69
2021/10/30 00:45:32;;;;;;;10.93;5.97;;;;;;;;;;5025914;28;20138;-70
2021/10/30 00:48:00;;;;;;;9.30;6.35;;;;;;;;;;5028313;28;20084;-69
2021/10/30 00:50:28;;;;;;;10.10;6.05;;;;;;;;;;5028697;28;20104;-68
2021/10/30 00:52:57;;;;;;;9.30;5.47;;;;;;;;;;5026285;28;20128;-66
2021/10/30 00:55:25;;;;;;;8.75;5.65;;;;;;;;;;5028095;28;20124;-68
2021/10/30 00:57:56;;;;;;;7.30;5.18;;;;;;;;;;5016628;28;20129;-68
2021/10/30 01:00:25;;;;;;;9.48;5.75;;;;;;;;;;5021211;28;20075;-67
2021/10/30 01:02:56;;;;;;;11.25;5.63;;;;;;;;;;5014107;28;20108;-66
2021/10/30 01:05:25;;;;;;;11.48;6.55;;;;;;;;;;5028869;28;20072;-66
2021/10/30 01:07:53;;;;;;;9.13;5.60;;;;;;;;;;5027269;28;20128;-70
2021/10/30 01:10:22;;;;;;;10.70;5.60;;;;;;;;;;5028492;28;20138;-66
2021/10/30 01:12:50;;;;;;;10.77;5.70;;;;;;;;;;5027892;28;20045;-65
2021/10/30 01:15:18;;;;;;;9.20;5.15;;;;;;;;;;5012244;28;20107;-70
2021/10/30 01:17:48;;;;;;;10.63;6.32;;;;;;;;;;5018337;28;20060;-66
2021/10/30 01:20:26;;;;;;;12.55;6.38;;;;;;;;;;5028714;28;20565;-66
2021/10/30 01:22:58;;;;;;;9.63;5.68;;;;;;;;;;5023818;28;20045;-65
2021/10/30 01:25:26;;;;;;;9.20;5.22;;;;;;;;;;5022868;28;20496;-72
2021/10/30 01:27:56;;;;;;;16.13;5.88;;;;;;;;;;5025317;28;20049;-66
2021/10/30 01:30:42;;;;;;;9.57;5.18;;;;;;;;;;2988609;28;10004108;-66
2021/10/30 01:33:11;;;;;;;9.75;5.50;;;;;;;;;;3268795;28;10001447;-68
2021/10/30 01:35:41;;;;;;;8.35;5.18;;;;;;;;;;4989880;28;20129;-67
2021/10/30 01:38:10;;;;;;;10.13;5.63;;;;;;;;;;4990432;28;20559;-66
2021/10/30 01:40:40;;;;;;;12.77;6.32;;;;;;;;;;4988170;28;20046;-71
2021/10/30 01:43:08;;;;;;;11.85;6.07;;;;;;;;;;4985932;28;20046;-66
2021/10/30 01:45:36;;;;;;;10.45;5.55;;;;;;;;;;4990502;28;20053;-67
2021/10/30 01:48:05;;;;;;;10.43;5.63;;;;;;;;;;4991151;28;20058;-68
2021/10/30 01:50:33;;;;;;;9.50;5.60;;;;;;;;;;4989796;28;20490;-66
2021/10/30 01:53:04;;;;;;;9.52;5.43;;;;;;;;;;4990114;28;20086;-66
2021/10/30 01:55:33;;;;;;;8.10;5.72;;;;;;;;;;4990302;28;20046;-68
2021/10/30 01:58:01;;;;;;;9.15;5.35;;;;;;;;;;4988886;28;20125;-67
2021/10/30 02:00:30;;;;;;;10.93;5.50;;;;;;;;;;4989068;28;20521;-69
2021/10/30 02:02:58;;;;;;;9.27;5.63;;;;;;;;;;4990662;28;20050;-66
2021/10/30 02:05:26;;;;;;;8.68;5.25;;;;;;;;;;4990515;28;20572;-66
2021/10/30 02:07:55;;;;;;;7.95;4.97;;;;;;;;;;4990974;28;20061;-66
2021/10/30 02:10:24;;;;;;;9.77;5.72;;;;;;;;;;4990192;28;20137;-66
2021/10/30 02:12:52;;;;;;;8.95;5.35;;;;;;;;;;4991286;28;20066;-68
2021/10/30 02:15:21;;;;;;;10.45;5.50;;;;;;;;;;4990883;28;20051;-68
2021/10/30 02:17:49;;;;;;;9.40;5.57;;;;;;;;;;4989192;28;20043;-71
2021/10/30 02:20:19;;;;;;;8.77;4.88;;;;;;;;;;4986039;28;20042;-66
2021/10/30 02:22:51;;;;;;;10.10;5.18;;;;;;;;;;4990864;28;20042;-66
2021/10/30 02:25:21;;;;;;;7.70;5.03;;;;;;;;;;4989373;28;20046;-66
2021/10/30 02:27:51;;;;;;;6.85;4.50;;;;;;;;;;4991354;28;20505;-70
2021/10/30 02:30:19;;;;;;;9.35;4.82;;;;;;;;;;4988263;28;20509;-72
2021/10/30 02:32:48;;;;;;;7.50;4.65;;;;;;;;;;4990504;28;20104;-65
2021/10/30 02:35:16;;;;;;;6.57;4.40;;;;;;;;;;4989624;28;20056;-68
2021/10/30 02:37:44;;;;;;;7.38;4.82;;;;;;;;;;4988180;28;20132;-66
2021/10/30 02:40:13;;;;;;;7.80;4.78;;;;;;;;;;4990006;28;20082;-66
2021/10/30 02:42:42;;;;;;;6.85;4.40;;;;;;;;;;4990977;28;20046;-66
2021/10/30 02:45:12;;;;;;;9.15;5.70;;;;;;;;;;4990252;28;20089;-66
2021/10/30 02:47:40;;;;;;;7.70;4.65;;;;;;;;;;4988101;28;20141;-66
2021/10/30 02:50:09;;;;;;;6.63;4.28;;;;;;;;;;4986621;28;20455;-65
2021/10/30 02:52:37;;;;;;;8.27;5.03;;;;;;;;;;4989806;28;20053;-66
2021/10/30 02:55:06;;;;;;;6.65;4.28;;;;;;;;;;4986638;28;20585;-66
2021/10/30 02:57:34;;;;;;;6.97;4.68;;;;;;;;;;4982066;28;20046;-70
2021/10/30 03:00:02;;;;;;;6.90;4.32;;;;;;;;;;4975542;28;20057;-70
2021/10/30 03:02:32;;;;;;;7.28;4.47;;;;;;;;;;4987264;28;20049;-66
2021/10/30 03:05:00;;;;;;;7.78;3.90;;;;;;;;;;4988282;28;20083;-69
2021/10/30 03:07:29;;;;;;;4.40;3.55;;;;;;;;;;4989815;28;20173;-67
2021/10/30 03:09:57;;;;;;;5.68;3.97;;;;;;;;;;4988924;28;20129;-68
2021/10/30 03:12:25;;;;;;;5.70;3.88;;;;;;;;;;4988447;28;20070;-69
2021/10/30 03:14:53;;;;;;;6.22;3.78;;;;;;;;;;4988365;28;20055;-66
2021/10/30 03:17:21;;;;;;;7.10;4.15;;;;;;;;;;4989045;28;20053;-66
2021/10/30 03:19:51;;;;;;;6.03;3.65;;;;;;;;;;4987533;28;20047;-66
2021/10/30 03:22:20;;;;;;;7.03;4.15;;;;;;;;;;4985183;28;20641;-70
2021/10/30 03:24:48;;;;;;;6.70;3.75;;;;;;;;;;4978950;28;20146;-66
2021/10/30 03:27:16;;;;;;;6.95;3.85;;;;;;;;;;4989387;28;20146;-67
2021/10/30 03:29:45;;;;;;;5.43;3.63;;;;;;;;;;4983389;28;20082;-69
2021/10/30 03:32:13;;;;;;;6.50;3.95;;;;;;;;;;4989098;28;20232;-66
2021/10/30 03:34:41;;;;;;;5.80;3.88;;;;;;;;;;4986975;28;20058;-68
2021/10/30 03:37:11;;;;;;;7.03;4.18;;;;;;;;;;4986640;28;20082;-68
2021/10/30 03:39:39;;;;;;;5.60;3.42;;;;;;;;;;4986119;28;20561;-70
2021/10/30 03:42:08;;;;;;;5.63;3.70;;;;;;;;;;4987525;28;20046;-66
2021/10/30 03:44:36;;;;;;;8.52;4.25;;;;;;;;;;4984973;28;20714;-67
2021/10/30 03:47:04;;;;;;;6.68;4.03;;;;;;;;;;4986474;28;20500;-66
2021/10/30 03:49:33;;;;;;;6.28;3.83;;;;;;;;;;4986771;28;20125;-66
2021/10/30 03:52:01;;;;;;;6.45;4.57;;;;;;;;;;4986968;28;20046;-66
2021/10/30 03:54:31;;;;;;;6.38;4.65;;;;;;;;;;4983964;28;20137;-74
2021/10/30 03:56:59;;;;;;;7.40;4.65;;;;;;;;;;4986692;28;20050;-69
2021/10/30 03:59:28;;;;;;;6.80;3.90;;;;;;;;;;4980967;28;20046;-66
2021/10/30 04:01:56;;;;;;;7.35;4.97;;;;;;;;;;4988843;28;20056;-66
2021/10/30 04:04:25;;;;;;;6.20;4.18;;;;;;;;;;4988176;28;20046;-66
2021/10/30 04:06:53;;;;;;;6.43;4.55;;;;;;;;;;4990266;28;20128;-67
2021/10/30 04:09:23;;;;;;;7.68;4.30;;;;;;;;;;4990218;28;20513;-67
2021/10/30 04:11:53;;;;;;;7.75;4.68;;;;;;;;;;4989012;28;20081;-68
2021/10/30 04:14:22;;;;;;;6.38;4.45;;;;;;;;;;4989460;28;20046;-66
2021/10/30 04:16:50;;;;;;;9.13;4.70;;;;;;;;;;4986023;28;20530;-66
2021/10/30 04:19:19;;;;;;;7.10;4.30;;;;;;;;;;4989047;28;20054;-67
2021/10/30 04:21:47;;;;;;;11.07;4.93;;;;;;;;;;4989983;28;20050;-66
2021/10/30 04:24:15;;;;;;;5.50;3.80;;;;;;;;;;4989155;28;20042;-67
2021/10/30 04:26:44;;;;;;;6.65;4.45;;;;;;;;;;4991163;28;20042;-66
2021/10/30 04:29:14;;;;;;;8.35;4.45;;;;;;;;;;4988028;28;20058;-67
2021/10/30 04:31:43;;;;;;;7.03;4.70;;;;;;;;;;4991843;28;20056;-69
2021/10/30 04:34:18;;;;;;;7.72;4.28;;;;;;;;;;4983674;28;20626;-68
2021/10/30 04:36:48;;;;;;;8.75;4.20;;;;;;;;;;4986465;28;20546;-66
2021/10/30 04:39:16;;;;;;;8.13;4.90;;;;;;;;;;4991267;28;20046;-67
2021/10/30 04:41:44;;;;;;;7.43;4.28;;;;;;;;;;4990390;28;20052;-66
2021/10/30 04:44:14;;;;;;;6.47;4.18;;;;;;;;;;4990118;28;20585;-69
2021/10/30 04:46:44;;;;;;;7.20;4.55;;;;;;;;;;4990041;28;20500;-67
2021/10/30 04:49:12;;;;;;;7.90;4.50;;;;;;;;;;4991704;28;20064;-72
2021/10/30 04:51:41;;;;;;;7.25;4.22;;;;;;;;;;4982724;28;20145;-69
2021/10/30 04:54:10;;;;;;;9.15;4.80;;;;;;;;;;4976890;28;20059;-72
2021/10/30 04:56:38;;;;;;;7.50;4.28;;;;;;;;;;4986135;28;20569;-68
2021/10/30 04:59:06;;;;;;;8.43;4.45;;;;;;;;;;4986272;28;20141;-69
2021/10/30 05:01:36;;;;;;;6.60;4.15;;;;;;;;;;4983484;28;20046;-71
2021/10/30 05:04:05;;;;;;;6.47;4.22;;;;;;;;;;4986813;28;20140;-68
2021/10/30 05:06:33;;;;;;;6.57;3.85;;;;;;;;;;4984768;28;20801;-72
2021/10/30 05:09:01;;;;;;;5.68;3.60;;;;;;;;;;4986688;28;20046;-68
2021/10/30 05:11:29;;;;;;;6.65;4.38;;;;;;;;;;4987467;28;20478;-72
2021/10/30 05:13:58;;;;;;;6.57;4.18;;;;;;;;;;4981413;28;20570;-68
2021/10/30 05:16:26;;;;;;;6.07;3.88;;;;;;;;;;4985353;28;20461;-70
2021/10/30 05:18:56;;;;;;;7.45;3.72;;;;;;;;;;4984776;28;20142;-66
2021/10/30 05:21:24;;;;;;;8.90;4.25;;;;;;;;;;4985722;28;20149;-73
2021/10/30 05:23:52;;;;;;;8.93;4.40;;;;;;;;;;4986610;28;20142;-69
2021/10/30 05:26:21;;;;;;;6.38;4.05;;;;;;;;;;4984608;28;20050;-69
2021/10/30 05:28:49;;;;;;;5.78;3.88;;;;;;;;;;4984355;28;20096;-70
2021/10/30 05:31:17;;;;;;;5.90;3.70;;;;;;;;;;4980394;28;20046;-70
2021/10/30 05:33:46;;;;;;;7.82;4.40;;;;;;;;;;4984982;28;20477;-67
2021/10/30 05:36:16;;;;;;;8.18;4.50;;;;;;;;;;4985834;28;20069;-66
2021/10/30 05:38:48;;;;;;;7.55;4.28;;;;;;;;;;4984795;28;20129;-67
2021/10/30 05:41:17;;;;;;;6.10;4.13;;;;;;;;;;4979655;28;20083;-70
2021/10/30 05:43:47;;;;;;;7.20;4.38;;;;;;;;;;4985134;28;20748;-67
2021/10/30 05:46:16;;;;;;;8.57;4.60;;;;;;;;;;4985073;28;20038;-69
2021/10/30 05:48:45;;;;;;;9.82;4.50;;;;;;;;;;4987604;28;20057;-67
2021/10/30 05:51:13;;;;;;;7.18;4.30;;;;;;;;;;4986300;28;20141;-68
2021/10/30 05:53:43;;;;;;;6.70;4.70;;;;;;;;;;4986510;28;20061;-67
2021/10/30 05:56:11;;;;;;;7.22;3.75;;;;;;;;;;4984134;28;20082;-67
2021/10/30 05:58:39;;;;;;;8.45;4.40;;;;;;;;;;4985773;28;20089;-66
2021/10/30 06:01:08;;;;;;;5.60;3.70;;;;;;;;;;4986557;28;20089;-66
2021/10/30 06:03:36;;;;;;;10.52;4.38;;;;;;;;;;4984504;28;20050;-67
2021/10/30 06:06:04;;;;;;;8.27;4.43;;;;;;;;;;4982804;28;20129;-66
2021/10/30 06:08:33;;;;;;;8.60;4.40;;;;;;;;;;4983178;28;20181;-66
2021/10/30 06:11:02;;;;;;;7.47;4.38;;;;;;;;;;4987720;28;20108;-69
2021/10/30 06:13:31;;;;;;;8.68;4.68;;;;;;;;;;4985357;28;20049;-70
2021/10/30 06:15:59;;;;;;;7.97;4.22;;;;;;;;;;4977869;28;20125;-67
2021/10/30 06:18:27;;;;;;;6.72;4.03;;;;;;;;;;4985200;28;20101;-66
2021/10/30 06:20:55;;;;;;;8.30;4.68;;;;;;;;;;4984863;28;20150;-67
2021/10/30 06:23:24;;;;;;;8.43;4.78;;;;;;;;;;4985776;28;20050;-67
2021/10/30 06:25:53;;;;;;;8.30;4.65;;;;;;;;;;4986379;28;20418;-66
2021/10/30 06:28:22;;;;;;;6.50;4.45;;;;;;;;;;4986905;28;20141;-68
2021/10/30 06:30:51;;;;;;;6.55;4.60;;;;;;;;;;4986965;28;20188;-66
2021/10/30 06:33:20;;;;;;;8.15;4.78;;;;;;;;;;4986072;28;20093;-66
2021/10/30 06:35:48;;;;;;;10.65;4.85;;;;;;;;;;4986836;28;20054;-66
2021/10/30 06:38:16;;;;;;;7.80;4.65;;;;;;;;;;4986894;28;20058;-66
2021/10/30 06:40:45;;;;;;;5.32;3.70;;;;;;;;;;4986939;28;20125;-66
2021/10/30 06:43:13;;;;;;;8.60;4.75;;;;;;;;;;4985237;28;20661;-66
2021/10/30 06:45:43;;;;;;;6.90;4.38;;;;;;;;;;4985629;28;20138;-70
2021/10/30 06:48:11;;;;;;;7.43;4.70;;;;;;;;;;4979306;28;20054;-66
2021/10/30 06:50:39;;;;;;;9.18;4.38;;;;;;;;;;4980970;28;20145;-72
2021/10/30 06:53:07;;;;;;;7.22;4.25;;;;;;;;;;4986958;28;20145;-67
2021/10/30 06:55:36;;;;;;;7.38;4.90;;;;;;;;;;4986633;28;20089;-66
2021/10/30 06:58:04;;;;;;;6.45;4.55;;;;;;;;;;4985599;28;20114;-69
2021/10/30 07:00:32;;;;;;;6.47;4.22;;;;;;;;;;4984978;28;20050;-66
2021/10/30 07:03:02;;;;;;;10.27;4.47;;;;;;;;;;4982968;28;20042;-72
2021/10/30 07:05:31;;;;;;;9.43;4.80;;;;;;;;;;4982972;28;20046;-69
2021/10/30 07:07:59;;;;;;;7.25;4.45;;;;;;;;;;4985613;28;20046;-67
2021/10/30 07:10:27;;;;;;;6.53;3.95;;;;;;;;;;4984072;28;20145;-67
2021/10/30 07:12:55;;;;;;;8.00;4.45;;;;;;;;;;4986415;28;20494;-66
2021/10/30 07:15:24;;;;;;;6.88;4.45;;;;;;;;;;4985021;28;20161;-66
2021/10/30 07:17:52;;;;;;;7.78;4.57;;;;;;;;;;4987612;28;20125;-66
2021/10/30 07:20:22;;;;;;;9.02;5.07;;;;;;;;;;4974651;28;20146;-66
2021/10/30 07:22:51;;;;;;;8.05;3.83;;;;;;;;;;4979799;28;20145;-67
2021/10/30 07:25:20;;;;;;;6.72;3.90;;;;;;;;;;4981851;28;20044;-68
2021/10/30 07:27:49;;;;;;;6.70;4.18;;;;;;;;;;4986326;28;20141;-68
2021/10/30 07:30:17;;;;;;;6.53;4.15;;;;;;;;;;4985344;28;20502;-66
2021/10/30 07:32:50;;;;;;;8.30;4.65;;;;;;;;;;4986855;28;20126;-68
2021/10/30 07:35:18;;;;;;;8.93;4.55;;;;;;;;;;4990272;28;20054;-69
2021/10/30 07:37:48;;;;;;;7.13;4.28;;;;;;;;;;4990441;28;20152;-66
2021/10/30 07:40:16;;;;;;;7.70;3.60;;;;;;;;;;4990236;28;20089;-68
2021/10/30 07:42:45;;;;;;;9.10;5.28;;;;;;;;;;4989698;28;20521;-71
2021/10/30 07:45:13;;;;;;;9.48;4.70;;;;;;;;;;4990094;28;20078;-66
2021/10/30 07:47:45;;;;;;;9.25;4.63;;;;;;;;;;4990087;28;20050;-68
2021/10/30 07:50:13;;;;;;;9.63;5.13;;;;;;;;;;4988931;28;20145;-68
2021/10/30 07:52:42;;;;;;;7.90;4.35;;;;;;;;;;4989243;28;20050;-67
2021/10/30 07:55:12;;;;;;;7.70;5.13;;;;;;;;;;4977051;28;20085;-68
2021/10/30 07:57:40;;;;;;;7.82;4.43;;;;;;;;;;4988219;28;20092;-69
2021/10/30 08:00:09;;;;;;;8.80;5.30;;;;;;;;;;4989357;28;20073;-66
2021/10/30 08:02:38;;;;;;;9.20;4.55;;;;;;;;;;4973988;28;20047;-66
2021/10/30 08:05:07;;;;;;;7.75;4.70;;;;;;;;;;4981806;28;20129;-69
2021/10/30 08:07:36;;;;;;;8.18;4.68;;;;;;;;;;4988554;28;20058;-67
2021/10/30 08:10:05;;;;;;;8.07;4.90;;;;;;;;;;4988370;28;20108;-67
2021/10/30 08:12:35;;;;;;;8.82;4.95;;;;;;;;;;4988140;28;20061;-67
2021/10/30 08:15:04;;;;;;;7.65;4.85;;;;;;;;;;4986135;28;20520;-68
2021/10/30 08:17:32;;;;;;;7.65;4.65;;;;;;;;;;4989505;28;20050;-66
2021/10/30 08:20:01;;;;;;;12.13;4.93;;;;;;;;;;4985326;28;20478;-72
2021/10/30 08:22:29;;;;;;;7.50;4.78;;;;;;;;;;4985932;28;20134;-67
2021/10/30 08:24:58;;;;;;;9.38;5.35;;;;;;;;;;4987752;28;20132;-67
2021/10/30 08:27:26;;;;;;;10.00;5.40;;;;;;;;;;4989402;28;20050;-69
2021/10/30 08:29:56;;;;;;;9.02;5.20;;;;;;;;;;4987803;28;20054;-67
2021/10/30 08:32:24;;;;;;;8.15;4.72;;;;;;;;;;4980431;28;20180;-67
2021/10/30 08:34:53;;;;;;;7.10;4.28;;;;;;;;;;4968589;28;20465;-68
2021/10/30 08:37:21;;;;;;;8.77;4.80;;;;;;;;;;4965656;28;20617;-71
2021/10/30 08:39:50;;;;;;;8.18;4.78;;;;;;;;;;4967610;28;20150;-68
2021/10/30 08:42:18;;;;;;;9.55;4.90;;;;;;;;;;4967663;28;20047;-68
2021/10/30 08:44:46;;;;;;;11.10;5.50;;;;;;;;;;4966985;28;20141;-71
2021/10/30 08:47:17;;;;;;;8.52;5.20;;;;;;;;;;4966658;28;20139;-68
2021/10/30 08:49:46;;;;;;;12.85;4.90;;;;;;;;;;4965972;28;20511;-66
2021/10/30 08:52:14;;;;;;;9.13;5.10;;;;;;;;;;4952324;28;20511;-72
2021/10/30 08:54:42;;;;;;;9.40;5.15;;;;;;;;;;4965363;28;20051;-66
2021/10/30 08:57:10;;;;;;;8.75;4.82;;;;;;;;;;4965221;28;20460;-66
2021/10/30 08:59:40;;;;;;;10.98;5.90;;;;;;;;;;4961877;28;20495;-68
2021/10/30 09:02:09;;;;;;;10.02;5.70;;;;;;;;;;4964946;28;20169;-66
2021/10/30 09:04:38;;;;;;;8.73;5.38;;;;;;;;;;4965761;28;20134;-66
2021/10/30 09:07:08;;;;;;;13.02;5.32;;;;;;;;;;4965917;28;20507;-72
2021/10/30 09:09:37;;;;;;;7.88;4.63;;;;;;;;;;4966802;28;20087;-70
2021/10/30 09:12:06;;;;;;;10.25;5.53;;;;;;;;;;4967355;28;20530;-66
2021/10/30 09:14:43;;;;;;;8.73;5.28;;;;;;;;;;4965359;28;20053;-65
2021/10/30 09:17:17;;;;;;;8.60;5.28;;;;;;;;;;4961475;28;20128;-68
2021/10/30 09:19:48;;;;;;;9.02;5.28;;;;;;;;;;4966306;28;20222;-67
2021/10/30 09:22:17;;;;;;;12.32;5.85;;;;;;;;;;4964979;28;20054;-71
2021/10/30 09:24:58;;;;;;;8.35;4.72;;;;;;;;;;4967292;28;20398;-66
2021/10/30 09:27:46;;;;;;;8.95;5.28;;;;;;;;;;4960947;28;20138;-69
2021/10/30 09:30:14;;;;;;;9.13;4.80;;;;;;;;;;4964841;28;20574;-67
2021/10/30 09:32:43;;;;;;;9.98;5.88;;;;;;;;;;4964153;28;20422;-65
2021/10/30 09:35:13;;;;;;;12.02;5.50;;;;;;;;;;4965632;28;20513;-64
2021/10/30 09:37:41;;;;;;;9.27;5.57;;;;;;;;;;4963679;28;20150;-67
2021/10/30 09:40:23;;;;;;;8.60;4.97;;;;;;;;;;4966463;28;20059;-66
2021/10/30 09:43:07;;;;;;;8.98;4.97;;;;;;;;;;4967390;28;20055;-65
2021/10/30 09:45:46;;;;;;;8.73;5.15;;;;;;;;;;4964830;28;20055;-73
2021/10/30 09:48:16;;;;;;;9.48;5.28;;;;;;;;;;4963569;28;20181;-64
2021/10/30 09:50:45;;;;;;;9.27;4.75;;;;;;;;;;4961217;28;20141;-70
2021/10/30 09:53:24;;;;;;;7.80;4.63;;;;;;;;;;4966055;28;20154;-63
2021/10/30 09:55:53;;;;;;;8.63;5.25;;;;;;;;;;4964825;28;20150;-66
2021/10/30 09:58:28;;;;;;;8.80;4.70;;;;;;;;;;4960022;28;20038;-63
2021/10/30 10:00:57;;;;;;;11.38;5.78;;;;;;;;;;4966272;28;20141;-70
2021/10/30 10:03:27;;;;;;;11.95;5.72;;;;;;;;;;4966557;28;20053;-67
2021/10/30 10:05:58;;;;;;;11.13;5.38;;;;;;;;;;4966554;28;20061;-69
2021/10/30 10:08:26;;;;;;;8.52;5.57;;;;;;;;;;4966098;28;20082;-67
2021/10/30 10:10:55;;;;;;;10.45;5.30;;;;;;;;;;4966989;28;20129;-66
2021/10/30 10:13:24;;;;;;;9.23;5.38;;;;;;;;;;4961415;28;20151;-66
2021/10/30 10:15:53;;;;;;;10.43;6.03;;;;;;;;;;4963018;28;20094;-67
2021/10/30 10:18:22;;;;;;;8.75;5.35;;;;;;;;;;4959106;28;20503;-64
2021/10/30 10:20:52;;;;;;;8.68;4.82;;;;;;;;;;4961959;28;20042;-64
2021/10/30 10:23:22;;;;;;;8.32;4.60;;;;;;;;;;4960202;28;20509;-64
2021/10/30 10:25:52;;;;;;;11.48;5.60;;;;;;;;;;4965912;28;20142;-65
2021/10/30 10:28:27;;;;;;;8.45;5.32;;;;;;;;;;4961579;28;20055;-65
2021/10/30 10:30:55;;;;;;;;;;;;;;;;;;4967823;28;20401;-63
2021/10/30 10:33:24;;;;;;;9.57;5.57;;;;;;;;;;4967682;28;19926;-66
2021/10/30 10:36:11;;;;;;;9.13;5.55;;;;;;;;;;4969887;28;20138;-67
2021/10/30 10:38:58;;;;;;;9.52;5.65;;;;;;;;;;4957427;28;20058;-65
2021/10/30 10:41:46;;;;;;;11.68;6.00;;;;;;;;;;4963032;28;20491;-66
2021/10/30 10:44:17;;;;;;;9.00;5.53;;;;;;;;;;4966864;28;20138;-64
2021/10/30 10:46:50;;;;;;;9.52;5.43;;;;;;;;;;4969461;28;20137;-64
2021/10/30 10:49:21;;;;;;;9.85;5.55;;;;;;;;;;4962130;28;20138;-66
2021/10/30 10:51:52;;;;;;;10.45;5.45;;;;;;;;;;4968297;28;20142;-63
2021/10/30 10:54:20;;;;;;;9.95;5.72;;;;;;;;;;4968501;28;20137;-64
2021/10/30 10:56:58;;;;;;;9.95;6.10;;;;;;;;;;4952549;28;20137;-63
2021/10/30 10:59:40;;;;;;;10.65;5.95;;;;;;;;;;4969485;28;20058;-64
2021/10/30 11:02:18;;;;;;;10.32;6.03;;;;;;;;;;4968216;28;20134;-67
2021/10/30 11:05:05;;;;;;;11.02;5.95;;;;;;;;;;4966635;28;20118;-64
2021/10/30 11:07:33;;;;;;;9.15;5.43;;;;;;;;;;4960093;28;20110;-64
2021/10/30 11:10:02;;;;;;;9.10;5.10;;;;;;;;;;4969108;28;20375;-67
2021/10/30 11:12:31;;;;;;;13.13;5.82;;;;;;;;;;4972799;28;20051;-64
2021/10/30 11:15:09;;;;;;;9.73;5.40;;;;;;;;;;4973954;28;20138;-69
2021/10/30 11:17:38;;;;;;;8.88;5.25;;;;;;;;;;4973533;28;20149;-64
2021/10/30 11:20:13;;;;;;;11.20;5.75;;;;;;;;;;4967151;28;20082;-64
2021/10/30 11:22:57;;;;;;;9.48;5.15;;;;;;;;;;4970270;28;20043;-64
2021/10/30 11:25:26;;;;;;;8.70;5.38;;;;;;;;;;4968978;28;20078;-63
2021/10/30 11:27:55;;;;;;;9.90;5.38;;;;;;;;;;4972822;28;20133;-63
2021/10/30 11:30:35;;;;;;;11.43;5.70;;;;;;;;;;4972289;28;20137;-64
2021/10/30 11:33:22;;;;;;;10.02;5.88;;;;;;;;;;4972092;28;20078;-64
2021/10/30 11:35:58;;;;;;;9.35;5.55;;;;;;;;;;4970987;28;20042;-65
2021/10/30 11:38:27;;;;;;;8.45;4.90;;;;;;;;;;4966335;28;20047;-64
2021/10/30 11:40:57;;;;;;;12.23;4.97;;;;;;;;;;4971516;28;20046;-63
2021/10/30 11:43:29;;;;;;;8.25;5.25;;;;;;;;;;4972547;28;20057;-67
2021/10/30 11:46:00;;;;;;;9.95;5.30;;;;;;;;;;4972816;28;20049;-63
2021/10/30 11:48:38;;;;;;;8.23;5.03;;;;;;;;;;4973481;28;20142;-64
2021/10/30 11:51:07;;;;;;;8.00;5.22;;;;;;;;;;4966630;28;20419;-67
2021/10/30 11:53:36;;;;;;;8.95;4.57;;;;;;;;;;4968461;28;20426;-63
2021/10/30 11:56:08;;;;;;;10.73;4.70;;;;;;;;;;4968421;28;20141;-66
2021/10/30 11:58:44;;;;;;;10.10;5.60;;;;;;;;;;4969615;28;20105;-65
2021/10/30 12:01:25;;;;;;;7.43;5.07;;;;;;;;;;4960538;28;20154;-64
2021/10/30 12:03:54;;;;;;;8.07;5.22;;;;;;;;;;4970264;28;20169;-65
2021/10/30 12:06:44;;;;;;;9.18;5.07;;;;;;;;;;4965829;28;20046;-64
2021/10/30 12:09:17;;;;;;;9.15;4.68;;;;;;;;;;4969791;28;20110;-64
2021/10/30 12:11:46;;;;;;;8.60;5.30;;;;;;;;;;4968574;28;20046;-65
2021/10/30 12:14:21;;;;;;;8.25;4.85;;;;;;;;;;4968729;28;20688;-65
2021/10/30 12:16:51;;;;;;;10.55;5.03;;;;;;;;;;4968451;28;20051;-68
2021/10/30 12:19:20;;;;;;;7.47;4.88;;;;;;;;;;4961478;28;20047;-63
2021/10/30 12:21:49;;;;;;;6.60;4.63;;;;;;;;;;4966375;28;20426;-64
2021/10/30 12:24:27;;;;;;;7.10;4.28;;;;;;;;;;4968451;28;20529;-65
2021/10/30 12:26:56;;;;;;;5.38;3.67;;;;;;;;;;4969840;28;20061;-66
2021/10/30 12:29:28;;;;;;;7.28;4.60;;;;;;;;;;4969874;28;20509;-67
2021/10/30 12:32:01;;;;;;;6.43;4.32;;;;;;;;;;4967342;28;20137;-66
2021/10/30 12:34:30;;;;;;;7.78;4.43;;;;;;;;;;4968625;28;20071;-65
2021/10/30 12:37:00;;;;;;;7.53;4.32;;;;;;;;;;4968425;28;20046;-69
2021/10/30 12:39:28;;;;;;;8.65;4.63;;;;;;;;;;4957895;28;20073;-65
2021/10/30 12:41:58;;;;;;;9.52;5.53;;;;;;;;;;4959508;28;20472;-65
2021/10/30 12:44:28;;;;;;;8.98;4.88;;;;;;;;;;4967460;28;20201;-67
2021/10/30 12:46:57;;;;;;;11.38;6.13;;;;;;;;;;4967637;28;20505;-64
2021/10/30 12:49:28;;;;;;;12.02;6.50;;;;;;;;;;4968099;28;20051;-65
2021/10/30 12:52:01;;;;;;;10.15;6.22;;;;;;;;;;4968176;28;20585;-65
2021/10/30 12:54:29;;;;;;;9.20;5.63;;;;;;;;;;4968076;28;20534;-67
2021/10/30 12:56:58;;;;;;;10.73;6.53;;;;;;;;;;4968139;28;20129;-64
2021/10/30 12:59:40;;;;;;;13.43;7.07;;;;;;;;;;4966253;28;20129;-67
2021/10/30 13:02:08;;;;;;;14.57;7.15;;;;;;;;;;4967800;28;20077;-64
2021/10/30 13:04:40;;;;;;;16.33;8.45;;;;;;;;;;4968197;28;20172;-64
2021/10/30 13:07:09;;;;;;;15.52;8.18;;;;;;;;;;4966104;28;20645;-64
2021/10/30 13:09:38;;;;;;;14.52;8.30;;;;;;;;;;4965845;28;20129;-63
2021/10/30 13:12:09;;;;;;;18.17;9.75;;;;;;;;;;4961769;28;20130;-68
2021/10/30 13:14:37;;;;;;;17.95;9.15;;;;;;;;;;4966991;28;20464;-64
2021/10/30 13:17:05;;;;;;;17.45;9.90;;;;;;;;;;4967567;28;20047;-64
2021/10/30 13:19:34;;;;;;;19.75;10.05;;;;;;;;;;4958963;28;20047;-69
2021/10/30 13:22:04;;;;;;;27.83;11.65;;;;;;;;;;4960540;28;20463;-71
2021/10/30 13:24:33;;;;;;;21.95;10.57;;;;;;;;;;4967421;28;20082;-68
2021/10/30 13:27:02;;;;;;;22.08;10.50;;;;;;;;;;4967571;28;20157;-70
2021/10/30 13:29:30;;;;;;;17.50;9.70;;;;;;;;;;4966930;28;20078;-66
2021/10/30 13:31:58;;;;;;;22.23;11.15;;;;;;;;;;4965727;28;20149;-64
2021/10/30 13:34:27;;;;;;;21.98;11.95;;;;;;;;;;4966843;28;20050;-64
2021/10/30 13:36:55;;;;;;;20.80;11.38;;;;;;;;;;4966568;28;20055;-64
2021/10/30 13:39:25;;;;;;;22.98;12.27;;;;;;;;;;4965843;28;20130;-66
2021/10/30 13:41:53;;;;;;;23.40;12.35;;;;;;;;;;4952510;28;20498;-68
2021/10/30 13:44:21;;;;;;;22.40;11.85;;;;;;;;;;4967184;28;20105;-65
2021/10/30 13:46:50;;;;;;;22.98;12.00;;;;;;;;;;4968008;28;20057;-67
2021/10/30 13:49:18;;;;;;;23.63;12.52;;;;;;;;;;4966736;28;20577;-64
2021/10/30 13:51:47;;;;;;;24.83;12.48;;;;;;;;;;4967343;28;20106;-65
2021/10/30 13:54:15;;;;;;;22.73;11.18;;;;;;;;;;4965399;28;20142;-63
2021/10/30 13:56:45;;;;;;;22.50;11.95;;;;;;;;;;4966272;28;20566;-69
2021/10/30 13:59:33;;;;;;;22.13;11.57;;;;;;;;;;4963030;28;20050;-69
2021/10/30 14:02:01;;;;;;;23.90;11.82;;;;;;;;;;4967075;28;20134;-65
2021/10/30 14:04:33;;;;;;;23.70;11.52;;;;;;;;;;4956028;28;20059;-64
2021/10/30 14:07:02;;;;;;;17.05;9.75;;;;;;;;;;4959886;28;20518;-67
2021/10/30 14:09:30;;;;;;;15.73;8.90;;;;;;;;;;4959961;28;20055;-64
2021/10/30 14:12:00;;;;;;;15.55;9.60;;;;;;;;;;4958567;28;20538;-63
2021/10/30 14:14:28;;;;;;;18.63;9.85;;;;;;;;;;4966849;28;20145;-67
2021/10/30 14:16:57;;;;;;;15.80;9.00;;;;;;;;;;4966750;28;20043;-64
2021/10/30 14:19:25;;;;;;;16.05;8.82;;;;;;;;;;4964677;28;20474;-67
2021/10/30 14:21:54;;;;;;;14.80;8.77;;;;;;;;;;4966077;28;20078;-68
2021/10/30 14:24:22;;;;;;;15.13;8.68;;;;;;;;;;4963551;28;20051;-65
2021/10/30 14:26:52;;;;;;;15.68;8.15;;;;;;;;;;4966796;28;20128;-64
2021/10/30 14:29:22;;;;;;;18.92;9.27;;;;;;;;;;4965664;28;20410;-68
2021/10/30 14:31:52;;;;;;;14.13;8.77;;;;;;;;;;4966637;28;20092;-68
2021/10/30 14:34:20;;;;;;;13.98;8.32;;;;;;;;;;4958274;28;20058;-65
2021/10/30 14:36:49;;;;;;;13.38;7.97;;;;;;;;;;4949317;28;20098;-64
2021/10/30 14:39:17;;;;;;;15.18;8.32;;;;;;;;;;4962225;28;20058;-65
2021/10/30 14:41:46;;;;;;;14.07;7.85;;;;;;;;;;4964261;28;20501;-68
2021/10/30 14:44:15;;;;;;;14.75;7.82;;;;;;;;;;4966755;28;20142;-67
2021/10/30 14:46:46;;;;;;;15.38;8.70;;;;;;;;;;4965839;28;20142;-63
2021/10/30 14:49:14;;;;;;;13.38;7.72;;;;;;;;;;4965391;28;20051;-65
2021/10/30 14:51:42;;;;;;;16.95;8.73;;;;;;;;;;4965634;28;20093;-65
2021/10/30 14:54:12;;;;;;;18.73;9.35;;;;;;;;;;4966170;28;20059;-63